Time;durP1;ratioP1;P1;durP2;ratioP2;P2;SDS_P1;SDS_P2;PMS_P1;PMS_P2;Temp;Humidity;BMP_temperature;BMP_pressure;BME280_temperature;BME280_humidity;BME280_pressure;Samples;Min_cycle;Max_cycle;Signal;HPM_P1;HPM_P2
2022/11/14 00:01:28;;;;;;;;;20.00;19.00;;;;;;;;114923;1206;25532;-68
2022/11/14 00:03:57;;;;;;;;;19.00;19.00;;;;;;;;114821;1197;25556;-67
2022/11/14 00:06:25;;;;;;;;;17.00;17.00;;;;;;;;114903;1204;25334;-68
2022/11/14 00:08:53;;;;;;;;;23.00;17.00;;;;;;;;114858;1203;24804;-68
2022/11/14 00:11:22;;;;;;;;;22.50;20.00;;;;;;;;114893;1206;25525;-68
2022/11/14 00:13:50;;;;;;;;;22.00;20.00;;;;;;;;114881;1206;25559;-69
2022/11/14 00:16:19;;;;;;;;;19.00;18.00;;;;;;;;114898;1206;25504;-68
2022/11/14 00:18:47;;;;;;;;;21.33;18.33;;;;;;;;114858;1200;25184;-68
2022/11/14 00:21:15;;;;;;;;;21.00;19.50;;;;;;;;114881;1200;24949;-69
2022/11/14 00:23:44;;;;;;;;;23.50;23.00;;;;;;;;114814;1206;25203;-67
2022/11/14 00:26:12;;;;;;;;;21.00;19.00;;;;;;;;114886;1203;25578;-67
2022/11/14 00:28:40;;;;;;;;;22.00;16.00;;;;;;;;114898;1206;24763;-68
2022/11/14 00:31:10;;;;;;;;;20.00;19.00;;;;;;;;114869;1200;25677;-67
2022/11/14 00:33:38;;;;;;;;;26.50;21.00;;;;;;;;114804;1206;25581;-67
2022/11/14 00:36:07;;;;;;;;;18.00;18.00;;;;;;;;114836;1206;25320;-67
2022/11/14 00:38:35;;;;;;;;;23.00;21.00;;;;;;;;114836;1204;25027;-68
2022/11/14 00:41:03;;;;;;;;;25.50;20.00;;;;;;;;114925;1200;25456;-68
2022/11/14 00:43:32;;;;;;;;;18.00;14.00;;;;;;;;114881;1206;25053;-67
2022/11/14 00:46:00;;;;;;;;;19.00;16.00;;;;;;;;114919;1200;25424;-68
2022/11/14 00:48:29;;;;;;;;;25.00;21.00;;;;;;;;114903;1200;25046;-68
2022/11/14 00:50:58;;;;;;;;;23.00;16.00;;;;;;;;114921;1203;25585;-68
2022/11/14 00:53:26;;;;;;;;;20.50;19.00;;;;;;;;114872;1206;24913;-69
2022/11/14 00:55:55;;;;;;;;;27.00;18.50;;;;;;;;114874;1197;25650;-67
2022/11/14 00:58:23;;;;;;;;;19.00;17.50;;;;;;;;114944;1203;25210;-68
2022/11/14 01:00:52;;;;;;;;;15.50;15.00;;;;;;;;114910;1200;25578;-69
2022/11/14 01:03:20;;;;;;;;;;;;;;;;;;114939;1208;25029;-68
2022/11/14 01:05:50;;;;;;;;;19.50;18.00;;;;;;;;114870;1206;25117;-68
2022/11/14 01:08:18;;;;;;;;;19.00;18.00;;;;;;;;114895;1203;24906;-68
2022/11/14 01:10:49;;;;;;;;;21.00;19.00;;;;;;;;114833;1204;25669;-68
2022/11/14 01:13:17;;;;;;;;;22.00;21.00;;;;;;;;114883;1207;25316;-68
2022/11/14 01:15:47;;;;;;;;;19.50;18.50;;;;;;;;114914;1208;25319;-68
2022/11/14 01:18:18;;;;;;;;;25.50;22.50;;;;;;;;114902;1203;24979;-67
2022/11/14 01:20:48;;;;;;;;;22.00;20.00;;;;;;;;114897;1199;25854;-68
2022/11/14 01:23:16;;;;;;;;;15.00;14.50;;;;;;;;114871;1199;25540;-67
2022/11/14 01:25:45;;;;;;;;;22.00;22.00;;;;;;;;114925;1200;25054;-68
2022/11/14 01:28:16;;;;;;;;;20.00;17.00;;;;;;;;114874;1200;25627;-67
2022/11/14 01:30:45;;;;;;;;;20.00;19.00;;;;;;;;114902;1201;25606;-68
2022/11/14 01:33:13;;;;;;;;;18.00;18.00;;;;;;;;114795;1206;25092;-68
2022/11/14 01:35:42;;;;;;;;;17.00;16.00;;;;;;;;114854;1196;25076;-68
2022/11/14 01:38:13;;;;;;;;;23.50;21.50;;;;;;;;114869;1201;24779;-68
2022/11/14 01:40:43;;;;;;;;;27.50;20.00;;;;;;;;114786;1201;24752;-67
2022/11/14 01:43:17;;;;;;;;;22.50;18.00;;;;;;;;114880;1199;25726;-68
2022/11/14 01:45:50;;;;;;;;;23.00;18.00;;;;;;;;114887;1203;25561;-67
2022/11/14 01:48:37;;;;;;;;;;;;;;;;;;114823;1202;25244;-67
2022/11/14 01:51:12;;;;;;;;;19.00;16.00;;;;;;;;114904;1208;25528;-69
2022/11/14 01:53:41;;;;;;;;;25.25;19.50;;;;;;;;114935;1195;25592;-68
2022/11/14 01:56:12;;;;;;;;;15.00;14.00;;;;;;;;114912;1204;24861;-68
2022/11/14 01:58:43;;;;;;;;;22.00;18.00;;;;;;;;114879;1199;25464;-68
2022/11/14 02:01:12;;;;;;;;;18.00;15.00;;;;;;;;114849;1197;25342;-68
2022/11/14 02:03:43;;;;;;;;;20.00;20.00;;;;;;;;114831;1206;25484;-68
2022/11/14 02:06:15;;;;;;;;;15.00;14.50;;;;;;;;114830;1197;25361;-68
2022/11/14 02:08:43;;;;;;;;;20.00;20.00;;;;;;;;114858;1200;25224;-68
2022/11/14 02:11:12;;;;;;;;;16.00;16.00;;;;;;;;114749;1204;25478;-68
2022/11/14 02:13:40;;;;;;;;;24.00;18.00;;;;;;;;114948;1199;25669;-72
2022/11/14 02:16:09;;;;;;;;;14.00;14.00;;;;;;;;114669;1203;26268;-70
2022/11/14 02:18:37;;;;;;;;;17.67;16.00;;;;;;;;114823;1206;25625;-68
2022/11/14 02:21:08;;;;;;;;;20.00;17.50;;;;;;;;114884;1200;25672;-68
2022/11/14 02:23:37;;;;;;;;;19.00;17.00;;;;;;;;114874;1208;25241;-67
2022/11/14 02:26:05;;;;;;;;;21.00;17.00;;;;;;;;114814;1208;24896;-68
2022/11/14 02:28:34;;;;;;;;;20.00;16.00;;;;;;;;114811;1206;24720;-68
2022/11/14 02:31:02;;;;;;;;;14.00;14.00;;;;;;;;114803;1206;24787;-69
2022/11/14 02:33:31;;;;;;;;;20.33;16.33;;;;;;;;114905;1206;25221;-69
2022/11/14 02:35:59;;;;;;;;;17.00;16.00;;;;;;;;114851;1206;24837;-67
2022/11/14 02:38:27;;;;;;;;;21.00;19.00;;;;;;;;114860;1206;25294;-68
2022/11/14 02:40:59;;;;;;;;;18.00;17.67;;;;;;;;114907;1200;25426;-67
2022/11/14 02:43:27;;;;;;;;;19.67;15.00;;;;;;;;114934;1199;24936;-68
2022/11/14 02:45:55;;;;;;;;;23.00;20.00;;;;;;;;114829;1207;25592;-67
2022/11/14 02:48:31;;;;;;;;;17.00;16.00;;;;;;;;114847;1204;25509;-67
2022/11/14 02:51:00;;;;;;;;;21.00;20.50;;;;;;;;114824;1206;24831;-68
2022/11/14 02:53:28;;;;;;;;;18.00;14.50;;;;;;;;114881;1208;24807;-68
2022/11/14 02:55:56;;;;;;;;;18.00;18.00;;;;;;;;114844;1201;25947;-67
2022/11/14 02:58:25;;;;;;;;;14.00;13.00;;;;;;;;114825;1208;24819;-68
2022/11/14 03:00:54;;;;;;;;;17.00;15.00;;;;;;;;114823;1196;25600;-69
2022/11/14 03:03:42;;;;;;;;;21.00;15.00;;;;;;;;114867;1200;25382;-67
2022/11/14 03:06:11;;;;;;;;;21.00;14.00;;;;;;;;114894;1199;24911;-68
2022/11/14 03:08:39;;;;;;;;;14.00;14.00;;;;;;;;114912;1196;24878;-69
2022/11/14 03:11:09;;;;;;;;;17.00;15.00;;;;;;;;114905;1208;25046;-68
2022/11/14 03:13:37;;;;;;;;;17.67;14.67;;;;;;;;114909;1198;24760;-71
2022/11/14 03:16:07;;;;;;;;;13.00;13.00;;;;;;;;114815;1205;25697;-68
2022/11/14 03:18:36;;;;;;;;;17.00;13.50;;;;;;;;114906;1197;25182;-69
2022/11/14 03:21:13;;;;;;;;;15.00;12.50;;;;;;;;114862;1199;24752;-68
2022/11/14 03:23:42;;;;;;;;;13.50;12.50;;;;;;;;114919;1195;25515;-69
2022/11/14 03:26:11;;;;;;;;;16.67;12.67;;;;;;;;114833;1206;25728;-68
2022/11/14 03:28:40;;;;;;;;;20.00;17.00;;;;;;;;114910;1208;25676;-67
2022/11/14 03:31:11;;;;;;;;;14.00;14.00;;;;;;;;114919;1199;25331;-69
2022/11/14 03:33:40;;;;;;;;;15.00;15.00;;;;;;;;114766;1206;25079;-68
2022/11/14 03:36:08;;;;;;;;;14.00;13.00;;;;;;;;114891;1196;25581;-68
2022/11/14 03:38:38;;;;;;;;;15.00;13.00;;;;;;;;114908;1206;25758;-72
2022/11/14 03:41:06;;;;;;;;;17.00;14.00;;;;;;;;114735;1202;25050;-69
2022/11/14 03:43:35;;;;;;;;;14.00;13.00;;;;;;;;114869;1200;25355;-67
2022/11/14 03:46:03;;;;;;;;;14.50;13.00;;;;;;;;114818;1206;25644;-67
2022/11/14 03:48:32;;;;;;;;;17.00;14.00;;;;;;;;114859;1200;25747;-67
2022/11/14 03:51:00;;;;;;;;;13.50;13.00;;;;;;;;114839;1206;24988;-68
2022/11/14 03:53:29;;;;;;;;;17.00;13.00;;;;;;;;114825;1196;25414;-69
2022/11/14 03:55:57;;;;;;;;;16.00;15.00;;;;;;;;114880;1208;25597;-69
2022/11/14 03:58:26;;;;;;;;;11.00;10.00;;;;;;;;114866;1206;24670;-69
2022/11/14 04:00:55;;;;;;;;;15.00;13.00;;;;;;;;114872;1200;25995;-70
2022/11/14 04:03:24;;;;;;;;;16.00;12.00;;;;;;;;114945;1200;24973;-71
2022/11/14 04:05:52;;;;;;;;;12.33;10.00;;;;;;;;114928;1200;26101;-70
2022/11/14 04:08:20;;;;;;;;;15.00;12.00;;;;;;;;114935;1203;24851;-70
2022/11/14 04:10:49;;;;;;;;;12.00;11.50;;;;;;;;114902;1205;25568;-71
2022/11/14 04:13:18;;;;;;;;;14.50;11.50;;;;;;;;114774;1206;24897;-69
2022/11/14 04:15:46;;;;;;;;;17.00;15.00;;;;;;;;114756;1208;24683;-67
2022/11/14 04:18:14;;;;;;;;;11.50;11.50;;;;;;;;114852;1194;25537;-69
2022/11/14 04:20:43;;;;;;;;;14.50;11.50;;;;;;;;114850;1208;25311;-69
2022/11/14 04:23:11;;;;;;;;;14.00;13.00;;;;;;;;114905;1200;25758;-69
2022/11/14 04:25:42;;;;;;;;;15.50;12.50;;;;;;;;114745;1203;25410;-68
2022/11/14 04:28:11;;;;;;;;;16.00;14.00;;;;;;;;114938;1206;24865;-66
2022/11/14 04:30:40;;;;;;;;;18.00;13.00;;;;;;;;114836;1203;25476;-67
2022/11/14 04:33:08;;;;;;;;;12.00;12.00;;;;;;;;114880;1197;24691;-68
2022/11/14 04:35:36;;;;;;;;;14.00;11.50;;;;;;;;114829;1208;25079;-67
2022/11/14 04:38:05;;;;;;;;;16.50;12.50;;;;;;;;114662;1206;25733;-66
2022/11/14 04:40:33;;;;;;;;;15.00;12.00;;;;;;;;114848;1206;25012;-67
2022/11/14 04:43:01;;;;;;;;;15.00;14.00;;;;;;;;114880;1206;24778;-65
2022/11/14 04:45:30;;;;;;;;;18.00;9.50;;;;;;;;114888;1207;25611;-65
2022/11/14 04:47:58;;;;;;;;;12.00;11.00;;;;;;;;114784;1200;25003;-61
2022/11/14 04:50:27;;;;;;;;;13.00;12.00;;;;;;;;114831;1200;25404;-66
2022/11/14 04:52:55;;;;;;;;;14.00;12.00;;;;;;;;114917;1206;25064;-67
2022/11/14 04:55:24;;;;;;;;;11.67;10.33;;;;;;;;114868;1197;25494;-67
2022/11/14 04:57:56;;;;;;;;;10.00;10.00;;;;;;;;114893;1204;25324;-66
2022/11/14 05:00:25;;;;;;;;;16.50;13.00;;;;;;;;114883;1204;24921;-67
2022/11/14 05:02:53;;;;;;;;;10.00;10.00;;;;;;;;114767;1205;25192;-66
2022/11/14 05:05:22;;;;;;;;;12.00;12.00;;;;;;;;114879;1199;26142;-66
2022/11/14 05:07:50;;;;;;;;;9.67;8.33;;;;;;;;114798;1208;25609;-66
2022/11/14 05:10:19;;;;;;;;;10.00;9.00;;;;;;;;114874;1200;25494;-66
2022/11/14 05:12:47;;;;;;;;;13.00;10.00;;;;;;;;114906;1200;25237;-66
2022/11/14 05:15:16;;;;;;;;;11.00;10.00;;;;;;;;114881;1208;24804;-66
2022/11/14 05:17:44;;;;;;;;;10.00;10.00;;;;;;;;114830;1199;24860;-66
2022/11/14 05:20:12;;;;;;;;;11.00;11.00;;;;;;;;114803;1203;25021;-66
2022/11/14 05:22:41;;;;;;;;;8.00;7.00;;;;;;;;114810;1199;25691;-66
2022/11/14 05:25:10;;;;;;;;;9.00;9.00;;;;;;;;114812;1209;24919;-66
2022/11/14 05:27:38;;;;;;;;;12.00;10.50;;;;;;;;114903;1199;24953;-67
2022/11/14 05:30:07;;;;;;;;;11.00;8.50;;;;;;;;114902;1203;25323;-66
2022/11/14 05:32:36;;;;;;;;;17.50;13.00;;;;;;;;114852;1207;25597;-66
2022/11/14 05:35:05;;;;;;;;;12.50;8.50;;;;;;;;114811;1206;24853;-66
2022/11/14 05:37:34;;;;;;;;;8.00;8.00;;;;;;;;112483;1200;3010048;-66
2022/11/14 05:40:04;;;;;;;;;10.50;10.00;;;;;;;;114860;1206;26372;-66
2022/11/14 05:42:32;;;;;;;;;12.25;9.00;;;;;;;;114889;1203;25383;-69
2022/11/14 05:45:00;;;;;;;;;9.50;8.00;;;;;;;;114899;1206;25211;-70
2022/11/14 05:47:29;;;;;;;;;11.75;8.50;;;;;;;;114871;1199;25596;-69
2022/11/14 05:49:57;;;;;;;;;12.00;8.00;;;;;;;;114905;1206;25339;-67
2022/11/14 05:52:25;;;;;;;;;8.67;8.00;;;;;;;;114762;1200;25005;-66
2022/11/14 05:54:54;;;;;;;;;11.00;8.50;;;;;;;;114886;1201;25133;-67
2022/11/14 05:57:22;;;;;;;;;11.50;10.50;;;;;;;;114855;1206;24998;-66
2022/11/14 05:59:50;;;;;;;;;11.00;8.50;;;;;;;;114903;1205;25002;-66
2022/11/14 06:02:19;;;;;;;;;12.00;9.00;;;;;;;;114847;1200;25203;-67
2022/11/14 06:04:47;;;;;;;;;10.00;8.00;;;;;;;;114904;1199;24846;-66
2022/11/14 06:07:16;;;;;;;;;8.00;6.00;;;;;;;;114871;1206;25120;-66
2022/11/14 06:09:47;;;;;;;;;10.00;7.00;;;;;;;;114847;1201;24902;-67
2022/11/14 06:12:16;;;;;;;;;10.00;9.33;;;;;;;;114838;1206;26137;-67
2022/11/14 06:14:44;;;;;;;;;7.00;7.00;;;;;;;;114729;1203;25508;-64
2022/11/14 06:17:12;;;;;;;;;5.00;5.00;;;;;;;;114763;1206;25633;-61
2022/11/14 06:19:41;;;;;;;;;12.00;8.00;;;;;;;;114847;1206;25503;-67
2022/11/14 06:22:09;;;;;;;;;12.67;8.67;;;;;;;;114776;1206;25178;-67
2022/11/14 06:24:38;;;;;;;;;6.00;6.00;;;;;;;;114794;1204;25750;-64
2022/11/14 06:27:06;;;;;;;;;8.50;6.00;;;;;;;;114820;1206;26446;-66
2022/11/14 06:29:34;;;;;;;;;13.00;9.00;;;;;;;;114849;1200;25750;-67
2022/11/14 06:32:03;;;;;;;;;12.00;8.00;;;;;;;;114896;1200;25094;-62
2022/11/14 06:34:31;;;;;;;;;19.50;13.50;;;;;;;;114758;1202;25511;-66
2022/11/14 06:37:00;;;;;;;;;16.00;14.00;;;;;;;;114857;1208;25215;-66
2022/11/14 06:39:29;;;;;;;;;14.00;10.00;;;;;;;;114917;1206;25246;-66
2022/11/14 06:41:57;;;;;;;;;20.00;12.00;;;;;;;;114888;1204;24951;-66
2022/11/14 06:44:25;;;;;;;;;18.00;15.00;;;;;;;;114852;1203;25139;-66
2022/11/14 06:46:58;;;;;;;;;11.00;10.00;;;;;;;;114860;1196;25613;-66
2022/11/14 06:49:26;;;;;;;;;15.00;11.00;;;;;;;;114896;1200;25336;-65
2022/11/14 06:51:55;;;;;;;;;18.50;10.50;;;;;;;;114880;1201;25045;-66
2022/11/14 06:54:23;;;;;;;;;15.00;9.00;;;;;;;;114864;1206;24972;-65
2022/11/14 06:56:51;;;;;;;;;16.00;11.00;;;;;;;;114855;1200;25626;-66
2022/11/14 06:59:20;;;;;;;;;17.00;14.00;;;;;;;;114859;1200;24978;-66
2022/11/14 07:01:48;;;;;;;;;21.50;13.00;;;;;;;;114875;1206;25334;-66
2022/11/14 07:04:16;;;;;;;;;;;;;;;;;;114883;1200;25192;-64
2022/11/14 07:06:45;;;;;;;;;20.00;12.00;;;;;;;;114854;1208;24805;-65
2022/11/14 07:09:13;;;;;;;;;18.33;11.67;;;;;;;;114910;1200;25088;-65
2022/11/14 07:11:44;;;;;;;;;10.50;10.50;;;;;;;;114859;1207;25229;-66
2022/11/14 07:14:13;;;;;;;;;16.00;11.00;;;;;;;;114921;1206;25434;-66
2022/11/14 07:16:41;;;;;;;;;15.33;10.00;;;;;;;;114918;1204;24846;-65
2022/11/14 07:19:10;;;;;;;;;14.00;12.33;;;;;;;;114903;1203;24817;-66
2022/11/14 07:21:39;;;;;;;;;14.00;9.00;;;;;;;;114914;1200;25277;-66
2022/11/14 07:24:07;;;;;;;;;10.00;8.00;;;;;;;;114866;1205;25454;-65
2022/11/14 07:26:35;;;;;;;;;11.00;11.00;;;;;;;;114880;1208;24959;-66
2022/11/14 07:29:04;;;;;;;;;10.00;7.00;;;;;;;;114841;1204;25551;-66
2022/11/14 07:31:32;;;;;;;;;;;;;;;;;;114907;1200;24725;-66
2022/11/14 07:34:00;;;;;;;;;10.00;10.00;;;;;;;;114875;1208;24734;-67
2022/11/14 07:36:29;;;;;;;;;15.00;12.00;;;;;;;;114828;1206;25842;-68
2022/11/14 07:38:57;;;;;;;;;8.00;6.00;;;;;;;;114881;1196;24969;-67
2022/11/14 07:41:26;;;;;;;;;14.67;9.00;;;;;;;;114787;1202;25174;-67
2022/11/14 07:43:54;;;;;;;;;11.50;10.00;;;;;;;;114893;1194;24744;-67
2022/11/14 07:46:22;;;;;;;;;13.00;11.00;;;;;;;;114866;1206;25143;-67
2022/11/14 07:48:51;;;;;;;;;17.00;12.00;;;;;;;;114862;1203;25399;-66
2022/11/14 07:51:19;;;;;;;;;15.00;9.00;;;;;;;;114748;1198;24812;-66
2022/11/14 07:53:52;;;;;;;;;12.50;7.00;;;;;;;;114840;1196;25594;-65
2022/11/14 07:56:21;;;;;;;;;7.50;7.50;;;;;;;;114676;1205;25748;-65
2022/11/14 07:58:49;;;;;;;;;10.00;8.00;;;;;;;;114895;1204;25192;-65
2022/11/14 08:01:17;;;;;;;;;11.00;7.00;;;;;;;;114821;1208;25639;-65
2022/11/14 08:03:46;;;;;;;;;7.00;6.00;;;;;;;;114787;1199;25839;-65
2022/11/14 08:06:15;;;;;;;;;8.00;7.50;;;;;;;;114787;1208;25566;-66
2022/11/14 08:08:43;;;;;;;;;11.00;6.00;;;;;;;;114907;1208;25273;-66
2022/11/14 08:11:12;;;;;;;;;7.50;6.00;;;;;;;;114756;1205;24912;-64
2022/11/14 08:13:50;;;;;;;;;11.50;7.00;;;;;;;;114778;1197;25426;-65
2022/11/14 08:16:18;;;;;;;;;8.50;7.00;;;;;;;;114808;1206;26077;-64
2022/11/14 08:18:47;;;;;;;;;7.00;5.50;;;;;;;;114816;1200;25366;-65
2022/11/14 08:21:15;;;;;;;;;11.50;8.00;;;;;;;;114884;1208;25064;-65
2022/11/14 08:23:44;;;;;;;;;9.00;8.00;;;;;;;;114896;1208;25272;-65
2022/11/14 08:26:12;;;;;;;;;9.00;7.00;;;;;;;;114945;1199;24954;-66
2022/11/14 08:28:41;;;;;;;;;9.50;6.00;;;;;;;;114865;1200;25240;-65
2022/11/14 08:31:10;;;;;;;;;8.33;6.33;;;;;;;;114816;1206;25028;-65
2022/11/14 08:33:38;;;;;;;;;10.00;6.50;;;;;;;;114910;1205;25677;-66
2022/11/14 08:36:09;;;;;;;;;9.00;8.00;;;;;;;;114928;1203;25397;-66
2022/11/14 08:38:37;;;;;;;;;7.00;4.00;;;;;;;;114880;1198;25132;-66
2022/11/14 08:41:05;;;;;;;;;9.00;7.00;;;;;;;;114860;1200;25648;-66
2022/11/14 08:43:34;;;;;;;;;13.00;8.00;;;;;;;;114897;1206;25651;-65
2022/11/14 08:46:04;;;;;;;;;12.00;8.50;;;;;;;;114813;1200;25063;-65
2022/11/14 08:48:32;;;;;;;;;9.00;7.00;;;;;;;;114803;1206;25087;-66
2022/11/14 08:51:03;;;;;;;;;8.50;6.00;;;;;;;;114782;1209;25166;-65
2022/11/14 08:53:32;;;;;;;;;7.67;4.33;;;;;;;;114858;1208;24755;-66
2022/11/14 08:56:01;;;;;;;;;9.00;8.00;;;;;;;;114896;1200;25715;-66
2022/11/14 08:58:31;;;;;;;;;6.33;3.67;;;;;;;;114922;1203;24833;-65
2022/11/14 09:01:05;;;;;;;;;6.33;6.00;;;;;;;;114870;1208;24810;-65
2022/11/14 09:03:34;;;;;;;;;6.00;6.00;;;;;;;;114823;1200;25477;-64
2022/11/14 09:06:03;;;;;;;;;5.00;5.00;;;;;;;;114868;1203;25650;-65
2022/11/14 09:08:31;;;;;;;;;8.00;8.00;;;;;;;;114772;1199;25150;-66
2022/11/14 09:11:02;;;;;;;;;6.00;4.00;;;;;;;;114894;1202;25040;-70
2022/11/14 09:13:33;;;;;;;;;11.00;6.00;;;;;;;;114746;1206;25381;-74
2022/11/14 09:16:02;;;;;;;;;7.00;5.00;;;;;;;;114926;1208;25482;-76
2022/11/14 09:18:30;;;;;;;;;8.00;4.50;;;;;;;;114834;1203;25660;-71
2022/11/14 09:21:01;;;;;;;;;5.00;5.00;;;;;;;;114745;1206;25431;-75
2022/11/14 09:23:29;;;;;;;;;7.00;6.00;;;;;;;;114868;1202;24838;-71
2022/11/14 09:26:04;;;;;;;;;6.00;5.00;;;;;;;;114833;1204;25177;-71
2022/11/14 09:28:32;;;;;;;;;9.00;6.00;;;;;;;;114771;1208;24983;-73
2022/11/14 09:31:07;;;;;;;;;4.00;4.00;;;;;;;;114845;1200;25655;-70
2022/11/14 09:33:35;;;;;;;;;7.00;5.00;;;;;;;;114784;1198;25537;-71
2022/11/14 09:36:06;;;;;;;;;5.00;4.00;;;;;;;;114908;1203;26254;-71
2022/11/14 09:38:34;;;;;;;;;7.00;6.00;;;;;;;;114898;1206;25225;-73
2022/11/14 09:41:44;;;;;;;;;7.00;6.00;;;;;;;;114930;1203;25830;-71
2022/11/14 09:44:40;;;;;;;;;8.00;6.00;;;;;;;;114712;1211;24967;-70
2022/11/14 09:47:16;;;;;;;;;6.50;5.50;;;;;;;;114886;1208;25254;-71
2022/11/14 09:49:50;;;;;;;;;7.00;6.00;;;;;;;;114906;1206;24827;-75
2022/11/14 09:52:43;;;;;;;;;4.33;3.67;;;;;;;;114910;1204;25573;-75
2022/11/14 09:55:30;;;;;;;;;6.50;5.50;;;;;;;;114880;1196;24999;-74
2022/11/14 09:58:05;;;;;;;;;7.50;6.00;;;;;;;;114863;1208;25599;-68
2022/11/14 10:01:04;;;;;;;;;7.00;6.00;;;;;;;;114801;1206;24708;-75
2022/11/14 10:03:54;;;;;;;;;5.00;4.00;;;;;;;;114836;1208;24945;-75
2022/11/14 10:06:27;;;;;;;;;6.00;5.00;;;;;;;;114808;1206;25195;-73
2022/11/14 10:09:01;;;;;;;;;8.00;5.00;;;;;;;;114831;1207;24862;-66
2022/11/14 10:11:53;;;;;;;;;6.00;6.00;;;;;;;;114798;1208;24876;-69
2022/11/14 10:14:34;;;;;;;;;8.25;5.00;;;;;;;;114882;1208;25251;-73
2022/11/14 10:17:02;;;;;;;;;8.50;6.75;;;;;;;;114849;1206;25140;-65
2022/11/14 10:19:56;;;;;;;;;10.00;6.00;;;;;;;;114890;1200;25388;-71
2022/11/14 10:23:06;;;;;;;;;6.33;5.33;;;;;;;;114788;1208;25022;-68
2022/11/14 10:26:05;;;;;;;;;6.67;6.00;;;;;;;;114665;1203;24758;-69
2022/11/14 10:28:53;;;;;;;;;6.00;3.50;;;;;;;;114794;1206;24997;-71
2022/11/14 10:31:24;;;;;;;;;8.00;6.00;;;;;;;;114892;1199;24909;-70
2022/11/14 10:34:29;;;;;;;;;4.00;4.00;;;;;;;;114863;1199;25351;-70
2022/11/14 10:37:28;;;;;;;;;8.00;5.00;;;;;;;;114622;1203;25185;-72
2022/11/14 10:40:20;;;;;;;;;8.50;7.00;;;;;;;;114894;1199;25370;-71
2022/11/14 10:42:57;;;;;;;;;7.67;6.00;;;;;;;;114894;1197;25356;-71
2022/11/14 10:45:46;;;;;;;;;4.00;4.00;;;;;;;;114938;1196;24858;-70
2022/11/14 10:48:37;;;;;;;;;6.00;4.00;;;;;;;;114876;1196;25502;-71
2022/11/14 10:51:18;;;;;;;;;5.00;3.33;;;;;;;;114845;1197;25451;-71
2022/11/14 10:53:57;;;;;;;;;7.00;4.50;;;;;;;;114796;1196;25181;-70
2022/11/14 10:56:25;;;;;;;;;4.00;4.00;;;;;;;;114791;1197;24986;-70
2022/11/14 10:58:54;;;;;;;;;7.00;6.00;;;;;;;;114887;1206;25662;-70
2022/11/14 11:01:38;;;;;;;;;4.00;4.00;;;;;;;;114818;1205;26001;-70
2022/11/14 11:04:28;;;;;;;;;7.00;4.33;;;;;;;;114863;1208;25512;-71
2022/11/14 11:07:05;;;;;;;;;6.00;4.00;;;;;;;;114901;1207;25307;-71
2022/11/14 11:12:44;;;;;;;;;4.00;4.00;;;;;;;;114760;1200;25684;-72
2022/11/14 11:15:24;;;;;;;;;5.00;4.00;;;;;;;;114758;1204;25522;-70
2022/11/14 11:17:56;;;;;;;;;6.00;6.00;;;;;;;;114891;1208;25275;-70
2022/11/14 11:20:39;;;;;;;;;5.00;4.00;;;;;;;;114904;1204;25125;-70
2022/11/14 11:23:11;;;;;;;;;3.50;3.50;;;;;;;;114782;1206;24942;-70
2022/11/14 11:25:39;;;;;;;;;5.00;4.00;;;;;;;;114915;1206;26387;-70
2022/11/14 11:28:18;;;;;;;;;6.00;3.00;;;;;;;;114894;1199;24845;-70
2022/11/14 11:31:00;;;;;;;;;7.67;5.00;;;;;;;;114887;1203;25009;-70
2022/11/14 11:33:31;;;;;;;;;4.50;4.50;;;;;;;;114894;1199;24881;-69
2022/11/14 11:36:12;;;;;;;;;3.00;3.00;;;;;;;;114893;1200;25044;-70
2022/11/14 11:38:41;;;;;;;;;5.00;5.00;;;;;;;;114862;1206;24900;-70
2022/11/14 11:41:27;;;;;;;;;6.50;4.50;;;;;;;;114901;1199;26169;-70
2022/11/14 11:44:18;;;;;;;;;4.25;4.25;;;;;;;;114794;1200;25453;-69
2022/11/14 11:46:53;;;;;;;;;6.00;4.00;;;;;;;;114794;1206;25086;-70
2022/11/14 11:49:51;;;;;;;;;5.00;5.00;;;;;;;;114896;1201;25594;-72
2022/11/14 11:53:12;;;;;;;;;8.00;6.00;;;;;;;;114858;1203;25583;-70
2022/11/14 11:55:46;;;;;;;;;5.50;5.00;;;;;;;;114801;1208;24805;-71
2022/11/14 11:58:46;;;;;;;;;5.50;4.00;;;;;;;;114849;1208;25894;-72
2022/11/14 12:01:15;;;;;;;;;5.00;4.00;;;;;;;;114886;1200;24924;-71
2022/11/14 12:03:53;;;;;;;;;5.00;5.00;;;;;;;;114946;1199;25012;-70
2022/11/14 12:06:24;;;;;;;;;5.00;4.00;;;;;;;;114885;1199;25148;-70
2022/11/14 12:09:14;;;;;;;;;6.00;5.00;;;;;;;;114918;1208;26146;-69
2022/11/14 12:11:56;;;;;;;;;7.00;5.00;;;;;;;;114875;1203;24929;-70
2022/11/14 12:14:38;;;;;;;;;4.00;3.50;;;;;;;;114909;1206;24849;-72
2022/11/14 12:17:45;;;;;;;;;3.67;3.67;;;;;;;;114881;1200;25746;-69
2022/11/14 12:20:40;;;;;;;;;6.00;4.00;;;;;;;;114571;1209;25787;-69
2022/11/14 12:23:14;;;;;;;;;4.00;4.00;;;;;;;;114420;1202;25068;-70
2022/11/14 12:26:04;;;;;;;;;5.50;4.00;;;;;;;;114742;1204;24715;-74
2022/11/14 12:28:45;;;;;;;;;5.00;4.00;;;;;;;;114800;1196;24761;-78
2022/11/14 12:31:18;;;;;;;;;7.00;3.00;;;;;;;;114797;1206;26189;-79
2022/11/14 12:33:58;;;;;;;;;7.00;5.00;;;;;;;;114825;1208;25523;-72
2022/11/14 12:36:30;;;;;;;;;5.00;4.00;;;;;;;;114865;1200;24775;-75
2022/11/14 12:39:00;;;;;;;;;5.67;5.33;;;;;;;;114812;1202;25296;-76
2022/11/14 12:41:34;;;;;;;;;2.00;2.00;;;;;;;;114909;1200;25416;-75
2022/11/14 12:44:26;;;;;;;;;6.00;5.00;;;;;;;;114843;1200;25751;-75
2022/11/14 12:47:04;;;;;;;;;4.00;2.50;;;;;;;;114734;1208;25445;-70
2022/11/14 12:49:48;;;;;;;;;6.00;5.00;;;;;;;;114863;1206;24764;-79
2022/11/14 12:52:44;;;;;;;;;5.00;5.00;;;;;;;;114889;1207;25019;-70
2022/11/14 12:55:25;;;;;;;;;8.00;8.00;;;;;;;;114800;1203;25325;-70
2022/11/14 12:58:06;;;;;;;;;6.33;4.33;;;;;;;;114904;1203;25472;-70
2022/11/14 13:00:58;;;;;;;;;7.00;4.00;;;;;;;;114905;1206;25214;-71
2022/11/14 13:03:56;;;;;;;;;6.50;4.50;;;;;;;;114876;1206;25219;-70
2022/11/14 13:06:33;;;;;;;;;5.00;4.00;;;;;;;;114925;1204;24750;-69
2022/11/14 13:09:28;;;;;;;;;7.00;7.00;;;;;;;;114842;1206;25209;-70
2022/11/14 13:23:24;;;;;;;;;4.00;4.00;;;;;;;;114829;1208;24826;-71
2022/11/14 13:26:08;;;;;;;;;7.00;4.00;;;;;;;;114939;1195;24770;-70
2022/11/14 13:28:37;;;;;;;;;6.00;4.50;;;;;;;;114817;1208;24846;-70
2022/11/14 13:31:14;;;;;;;;;6.50;5.00;;;;;;;;114838;1208;25313;-71
2022/11/14 13:33:49;;;;;;;;;6.00;6.00;;;;;;;;114865;1204;25025;-70
2022/11/14 13:36:42;;;;;;;;;5.00;5.00;;;;;;;;114910;1203;25381;-70
2022/11/14 13:39:25;;;;;;;;;6.00;6.00;;;;;;;;114842;1208;25609;-70
2022/11/14 13:41:59;;;;;;;;;7.00;5.00;;;;;;;;114899;1200;24990;-71
2022/11/14 13:44:53;;;;;;;;;3.00;3.00;;;;;;;;114922;1202;25202;-71
2022/11/14 13:48:05;;;;;;;;;5.00;5.00;;;;;;;;114872;1203;25573;-71
2022/11/14 13:50:36;;;;;;;;;6.00;6.00;;;;;;;;114832;1207;26155;-69
2022/11/14 13:53:22;;;;;;;;;9.50;8.00;;;;;;;;114795;1196;25075;-68
2022/11/14 13:56:05;;;;;;;;;4.00;4.00;;;;;;;;114821;1197;24829;-71
2022/11/14 13:59:21;;;;;;;;;9.50;7.00;;;;;;;;114894;1201;25140;-70
2022/11/14 14:02:31;;;;;;;;;5.67;4.00;;;;;;;;114865;1203;25338;-71
2022/11/14 14:05:23;;;;;;;;;6.00;6.00;;;;;;;;114786;1204;24824;-71
2022/11/14 14:08:01;;;;;;;;;8.50;7.00;;;;;;;;114833;1208;25370;-74
2022/11/14 14:10:55;;;;;;;;;8.00;6.67;;;;;;;;114800;1201;24848;-71
2022/11/14 14:13:39;;;;;;;;;9.00;6.50;;;;;;;;114706;1206;25534;-72
2022/11/14 14:16:10;;;;;;;;;5.50;4.50;;;;;;;;114906;1199;25984;-71
2022/11/14 14:18:54;;;;;;;;;8.50;6.50;;;;;;;;114873;1208;25226;-71
2022/11/14 14:21:44;;;;;;;;;3.50;3.00;;;;;;;;114873;1203;24938;-71
2022/11/14 14:24:21;;;;;;;;;8.00;6.00;;;;;;;;114871;1203;24966;-72
2022/11/14 14:26:54;;;;;;;;;7.00;7.00;;;;;;;;114901;1203;25453;-72
2022/11/14 14:29:31;;;;;;;;;7.00;5.50;;;;;;;;114898;1198;25781;-71
2022/11/14 14:32:14;;;;;;;;;6.00;6.00;;;;;;;;114882;1206;24998;-71
2022/11/14 14:34:43;;;;;;;;;9.50;7.00;;;;;;;;114875;1203;24904;-71
2022/11/14 14:37:20;;;;;;;;;5.00;5.00;;;;;;;;114938;1203;24759;-71
2022/11/14 14:39:56;;;;;;;;;9.00;8.00;;;;;;;;114824;1199;24939;-72
2022/11/14 14:42:25;;;;;;;;;7.00;4.67;;;;;;;;114855;1199;26097;-74
2022/11/14 14:45:02;;;;;;;;;10.50;9.50;;;;;;;;114848;1200;25059;-67
2022/11/14 14:47:31;;;;;;;;;8.00;7.00;;;;;;;;114884;1203;25167;-74
2022/11/14 14:50:02;;;;;;;;;10.00;8.33;;;;;;;;114856;1204;24851;-70
2022/11/14 14:52:35;;;;;;;;;7.33;5.00;;;;;;;;114815;1196;24988;-72
2022/11/14 14:55:15;;;;;;;;;10.67;7.67;;;;;;;;114904;1208;25698;-74
2022/11/14 14:57:43;;;;;;;;;9.00;8.00;;;;;;;;114825;1206;24753;-74
2022/11/14 15:00:21;;;;;;;;;12.00;7.50;;;;;;;;114745;1207;25034;-73
2022/11/14 15:02:53;;;;;;;;;11.00;8.00;;;;;;;;114650;1202;25396;-74
2022/11/14 15:05:25;;;;;;;;;10.00;6.00;;;;;;;;114851;1200;24911;-74
2022/11/14 15:07:56;;;;;;;;;9.00;9.00;;;;;;;;114844;1208;24932;-69
2022/11/14 15:10:28;;;;;;;;;11.00;8.00;;;;;;;;114835;1196;25101;-68